Airfield :
LOGIN :

Register | Disclaimer

   EN    FR    IT 

 










Legend :    VFR   Marginal VFR   IFR   Intensive IFR   Very Intensive IFR
Visi :
Ceiling :
>= 8 km
>= 3000ft
5 to 8 km
1000 to 3000 ft
1500m to 5 km
500 to 1000 ft
800 to 1500m
200 to 500 ft
< 800m
< 200 ft
Symbols :   Thunderstorms  Fog  Heavy snow  Heavy precipitations  Wind > 20 kt
SIGMETs :     Misc.  Thunderstorms  Icing  Turbulence  Mountain Waves  Volcanic Ashes






- Airport Elevation : 616 ft
- IATA code : PUF


LFBP - Pau

CURRENT METAR :
  • 071000Z AUTO VRB02KT CAVOK 21/15 Q1023 NOSIG

EXPIRED METARs :
  • 070930Z AUTO VRB02KT 9999 FEW090 20/15 Q1023 NOSIG
  • 070900Z AUTO 11004KT 080V140 CAVOK 18/15 Q1023 NOSIG
  • 070830Z AUTO 12004KT CAVOK 16/14 Q1023 NOSIG
  • 070800Z AUTO VRB02KT CAVOK 14/13 Q1023 NOSIG
  • 070730Z AUTO 13003KT CAVOK 13/13 Q1023 NOSIG

TAF TAF LFBP
Valid from the 07 at 06:00 until the 08 at 06:00 UTC


070500Z 0706/0806 VRB03KT CAVOK
PROB30
TEMPO 0706/0707 2000 BR
BECMG 0722/0724 27010KT BKN006
PROB40
TEMPO 0802/0806 3000 -SHRA BKN003 BKN040TCU



MET'MAP, your aeronautical weather chart ! - Copyright ORBIFLY December 2007 - Disclaimer

ORBIFLY MET'MAP TEAM :

Programming & Development : Alexandra Zaïnal
Original concept : Baudouin d'Aumeries
Technical & hardware support : Manuel Goepfert
Assistance : Marc-Olivier Méhu




SOURCES & CREDITS :

   NOAA